createdAt,value
2018-01-15T00:01:51.873Z,95.10
2018-01-15T00:04:19.393Z,94.90
2018-01-15T00:06:46.894Z,94.30
2018-01-15T00:09:14.421Z,93.70
2018-01-15T00:11:41.939Z,93.60
2018-01-15T00:14:09.472Z,93.90
2018-01-15T00:16:37.771Z,92.70
2018-01-15T00:19:05.291Z,92.70
2018-01-15T00:21:32.850Z,92.70
2018-01-15T00:24:00.382Z,92.70
2018-01-15T00:26:27.893Z,92.50
2018-01-15T00:28:56.195Z,92.10
2018-01-15T00:31:23.682Z,92.10
2018-01-15T00:33:51.179Z,91.90
2018-01-15T00:36:18.704Z,91.50
2018-01-15T00:38:46.222Z,91.30
2018-01-15T00:41:13.709Z,91.10
2018-01-15T00:43:41.233Z,91.20
2018-01-15T00:46:08.751Z,91.10
2018-01-15T00:48:36.245Z,91.00
2018-01-15T00:51:03.786Z,90.40
2018-01-15T00:53:31.276Z,90.50
2018-01-15T00:55:58.801Z,90.30
2018-01-15T00:58:26.286Z,90.10
2018-01-15T01:00:53.779Z,90.40
2018-01-15T01:03:21.298Z,90.60
2018-01-15T01:05:48.822Z,90.40
2018-01-15T01:08:17.127Z,90.00
2018-01-15T01:10:44.625Z,90.00
2018-01-15T01:13:12.117Z,90.30
2018-01-15T01:15:39.633Z,90.50
2018-01-15T01:18:07.129Z,90.70
2018-01-15T01:20:34.648Z,91.00
2018-01-15T01:23:02.142Z,90.90
2018-01-15T01:25:29.662Z,90.90
2018-01-15T01:27:57.170Z,90.80
2018-01-15T01:30:24.700Z,90.80
2018-01-15T01:32:52.197Z,90.70
2018-01-15T01:35:19.729Z,91.00
2018-01-15T01:37:47.247Z,91.20
2018-01-15T01:40:14.738Z,90.90
2018-01-15T01:42:43.032Z,91.50
2018-01-15T01:45:10.532Z,91.50
2018-01-15T01:47:38.022Z,91.80
2018-01-15T01:50:05.703Z,92.00
2018-01-15T01:52:34.021Z,91.80
2018-01-15T01:55:02.230Z,92.00
2018-01-15T01:57:29.769Z,91.90
2018-01-15T01:59:57.293Z,91.60
2018-01-15T02:02:25.577Z,92.40
2018-01-15T02:04:53.835Z,92.70
2018-01-15T02:07:21.355Z,92.70
2018-01-15T02:09:48.848Z,92.80
2018-01-15T02:12:16.375Z,93.10
2018-01-15T02:14:43.867Z,93.10
2018-01-15T02:17:11.378Z,93.40
2018-01-15T02:19:39.638Z,93.30
2018-01-15T02:22:07.161Z,93.30
2018-01-15T02:24:34.655Z,93.60
2018-01-15T02:27:02.170Z,93.60
2018-01-15T02:29:29.666Z,93.50
2018-01-15T02:31:57.198Z,93.60
2018-01-15T02:34:24.685Z,93.70
2018-01-15T02:36:52.170Z,93.70
2018-01-15T02:39:19.686Z,93.70
2018-01-15T02:41:47.188Z,93.70
2018-01-15T02:44:14.713Z,93.60
2018-01-15T02:46:42.202Z,93.70
2018-01-15T02:49:09.724Z,94.00
2018-01-15T02:51:37.227Z,93.80
2018-01-15T02:54:04.749Z,93.90
2018-01-15T02:56:32.254Z,94.20
2018-01-15T02:58:59.784Z,94.30
2018-01-15T03:01:27.416Z,94.50
2018-01-15T03:03:54.908Z,94.90
2018-01-15T03:06:22.437Z,95.10
2018-01-15T03:08:49.943Z,95.20
2018-01-15T03:11:17.466Z,95.40
2018-01-15T03:13:44.954Z,95.40
2018-01-15T03:16:13.253Z,95.60
2018-01-15T03:18:40.775Z,95.50
2018-01-15T03:21:08.270Z,95.60
2018-01-15T03:23:35.798Z,95.70
2018-01-15T03:26:03.286Z,95.70
2018-01-15T03:28:31.585Z,95.50
2018-01-15T03:30:59.123Z,95.50
2018-01-15T03:33:27.442Z,95.80
2018-01-15T03:35:54.925Z,95.70
2018-01-15T03:38:22.422Z,95.60
2018-01-15T03:40:49.946Z,95.70
2018-01-15T03:43:17.439Z,95.60
2018-01-15T03:45:44.986Z,95.90
2018-01-15T03:48:12.486Z,95.90
2018-01-15T03:50:40.787Z,95.80
2018-01-15T03:53:08.286Z,95.70
2018-01-15T03:55:35.800Z,95.80
2018-01-15T03:58:04.105Z,95.40
2018-01-15T04:00:31.650Z,95.40
2018-01-15T04:02:59.143Z,95.40
2018-01-15T04:05:26.682Z,95.40
2018-01-15T04:07:54.344Z,95.00
2018-01-15T04:10:21.852Z,95.50
2018-01-15T04:12:50.137Z,96.00
2018-01-15T04:15:17.665Z,95.90
2018-01-15T04:17:45.194Z,95.90
2018-01-15T04:20:12.773Z,95.80
2018-01-15T04:22:41.033Z,95.90
2018-01-15T04:25:08.525Z,95.90
2018-01-15T04:27:36.058Z,96.00
2018-01-15T04:30:03.575Z,95.60
2018-01-15T04:32:31.066Z,95.50
2018-01-15T04:34:58.603Z,95.30
2018-01-15T04:37:26.134Z,95.20
2018-01-15T04:39:54.433Z,94.20
2018-01-15T04:42:21.970Z,94.10
2018-01-15T04:44:50.259Z,94.30
2018-01-15T04:47:18.664Z,94.30
2018-01-15T04:49:46.238Z,94.20
2018-01-15T04:52:13.742Z,93.90
2018-01-15T04:54:41.234Z,93.80
2018-01-15T04:57:09.534Z,93.10
2018-01-15T04:59:37.070Z,93.00
2018-01-15T05:02:05.362Z,93.00
2018-01-15T05:04:33.664Z,92.80
2018-01-15T05:07:01.156Z,92.80
2018-01-15T05:09:28.688Z,92.90
2018-01-15T05:11:56.188Z,93.20
2018-01-15T05:14:23.686Z,92.80
2018-01-15T05:16:51.973Z,92.60
2018-01-15T05:19:20.230Z,92.30
2018-01-15T05:21:47.749Z,92.20
2018-01-15T05:24:15.279Z,92.30
2018-01-15T05:26:43.570Z,91.80
2018-01-15T05:29:11.113Z,92.30
2018-01-15T05:31:38.589Z,91.50
2018-01-15T05:34:06.859Z,91.10
2018-01-15T05:36:34.381Z,91.00
2018-01-15T05:39:01.870Z,91.20
2018-01-15T05:41:29.359Z,89.80
2018-01-15T05:43:57.650Z,89.30
2018-01-15T05:46:25.187Z,89.30
2018-01-15T05:48:52.716Z,89.10
2018-01-15T05:51:20.207Z,88.30
2018-01-15T05:53:47.742Z,87.90
2018-01-15T05:56:15.261Z,88.10
2018-01-15T05:58:43.557Z,88.70
2018-01-15T06:01:11.042Z,88.60
2018-01-15T06:03:38.568Z,87.90
2018-01-15T06:06:06.853Z,88.10
2018-01-15T06:08:34.396Z,88.00
2018-01-15T06:11:01.891Z,87.80
2018-01-15T06:13:29.410Z,88.60
2018-01-15T06:15:56.933Z,88.90
2018-01-15T06:18:24.460Z,88.70
2018-01-15T06:20:52.724Z,88.50
2018-01-15T06:23:21.518Z,88.40
2018-01-15T06:25:49.049Z,88.00
2018-01-15T06:28:16.580Z,89.10
2018-01-15T06:30:44.514Z,88.40
2018-01-15T06:33:12.066Z,88.60
2018-01-15T06:35:39.591Z,88.30
2018-01-15T06:38:09.017Z,88.40
2018-01-15T06:40:36.509Z,88.70
2018-01-15T06:43:03.993Z,89.40
2018-01-15T06:45:32.273Z,87.90
2018-01-15T06:48:00.583Z,86.30
2018-01-15T06:50:28.109Z,86.10
2018-01-15T06:52:55.631Z,84.60
2018-01-15T06:55:23.122Z,86.70
2018-01-15T06:57:50.637Z,87.10
2018-01-15T07:00:18.185Z,86.60
2018-01-15T07:02:46.465Z,85.80
2018-01-15T07:05:14.717Z,84.80
2018-01-15T07:07:42.253Z,84.90
2018-01-15T07:10:09.738Z,84.80
2018-01-15T07:12:37.233Z,83.80
2018-01-15T07:15:05.517Z,81.70
2018-01-15T07:17:33.786Z,81.10
2018-01-15T07:20:02.087Z,81.50
2018-01-15T07:22:29.574Z,81.40
2018-01-15T07:24:57.054Z,82.20
2018-01-15T07:27:24.579Z,82.60
2018-01-15T07:29:52.078Z,84.60
2018-01-15T07:32:19.605Z,86.00
2018-01-15T07:34:47.128Z,86.40
2018-01-15T07:37:14.650Z,86.10
2018-01-15T07:39:42.146Z,86.00
2018-01-15T07:42:09.680Z,85.90
2018-01-15T07:44:37.183Z,87.10
2018-01-15T07:47:04.667Z,86.70
2018-01-15T07:49:32.966Z,88.00
2018-01-15T07:52:00.465Z,87.90
2018-01-15T07:54:28.006Z,87.50
2018-01-15T07:56:55.500Z,87.90
2018-01-15T07:59:22.987Z,88.30
2018-01-15T08:01:50.518Z,87.80
2018-01-15T08:04:18.007Z,87.60
2018-01-15T08:06:45.506Z,87.10
2018-01-15T08:09:13.071Z,86.30
2018-01-15T08:11:40.573Z,85.30
2018-01-15T08:14:08.064Z,85.20
2018-01-15T08:16:35.577Z,81.90
2018-01-15T08:19:03.077Z,81.10
2018-01-15T08:21:30.601Z,81.00
2018-01-15T08:23:58.096Z,79.80
2018-01-15T08:26:25.607Z,80.30
2018-01-15T08:28:54.076Z,78.70
2018-01-15T08:31:21.557Z,78.70
2018-01-15T08:33:49.854Z,75.60
2018-01-15T08:36:17.378Z,75.60
2018-01-15T08:38:45.652Z,75.00
2018-01-15T08:41:13.170Z,75.00
2018-01-15T08:43:40.709Z,74.40
2018-01-15T08:46:08.961Z,72.90
2018-01-15T08:48:36.498Z,72.90
2018-01-15T08:51:04.006Z,72.60
2018-01-15T08:53:32.258Z,71.50
2018-01-15T08:55:59.762Z,71.40
2018-01-15T08:58:27.283Z,72.10
2018-01-15T09:00:54.819Z,71.70
2018-01-15T09:03:22.310Z,70.30
2018-01-15T09:05:49.823Z,70.10
2018-01-15T09:08:17.311Z,70.90
2018-01-15T09:10:44.836Z,71.80
2018-01-15T09:13:13.079Z,72.20
2018-01-15T09:15:40.707Z,72.20
2018-01-15T09:18:08.233Z,72.80
2018-01-15T09:20:36.526Z,70.70
2018-01-15T09:23:04.020Z,71.40
2018-01-15T09:25:31.506Z,69.90
2018-01-15T09:27:59.037Z,66.80
2018-01-15T09:30:26.534Z,63.40
2018-01-15T09:32:54.020Z,60.40
2018-01-15T09:35:21.534Z,58.20
2018-01-15T09:37:49.096Z,55.90
2018-01-15T09:40:16.569Z,54.10
2018-01-15T09:42:44.090Z,51.80
2018-01-15T09:45:12.338Z,49.40
2018-01-15T09:47:39.887Z,49.30
2018-01-15T09:50:07.390Z,51.40
2018-01-15T09:52:35.637Z,53.30
2018-01-15T09:55:03.176Z,53.20
2018-01-15T09:57:30.669Z,55.90
2018-01-15T09:59:58.203Z,57.00
2018-01-15T10:02:25.683Z,56.00
2018-01-15T10:04:53.173Z,60.30
2018-01-15T10:07:20.674Z,60.60
2018-01-15T10:09:48.173Z,62.20
2018-01-15T10:12:15.689Z,62.20
2018-01-15T10:14:43.937Z,60.90
2018-01-15T10:17:11.465Z,60.90
2018-01-15T10:19:39.092Z,59.60
2018-01-15T10:22:07.380Z,62.30
2018-01-15T10:24:35.630Z,61.70
2018-01-15T10:27:03.130Z,61.60
2018-01-15T10:29:30.642Z,62.60
2018-01-15T10:31:58.122Z,62.30
2018-01-15T10:34:25.661Z,63.90
2018-01-15T10:36:53.149Z,64.30
2018-01-15T10:39:20.638Z,62.80
2018-01-15T10:41:48.918Z,62.70
2018-01-15T10:44:17.177Z,60.30
2018-01-15T10:46:44.738Z,60.30
2018-01-15T10:49:12.252Z,61.00
2018-01-15T10:51:39.770Z,59.60
2018-01-15T10:54:07.280Z,59.20
2018-01-15T10:56:34.775Z,60.80
2018-01-15T10:59:02.311Z,61.80
2018-01-15T11:01:29.795Z,62.10
2018-01-15T11:03:57.276Z,63.80
2018-01-15T11:06:24.806Z,64.10
2018-01-15T11:08:52.302Z,64.80
2018-01-15T11:11:19.822Z,64.60
2018-01-15T11:13:47.311Z,63.50
2018-01-15T11:16:14.854Z,64.10
2018-01-15T11:18:42.375Z,64.00
2018-01-15T11:21:09.884Z,65.40
2018-01-15T11:23:37.375Z,65.30
2018-01-15T11:26:04.935Z,64.90
2018-01-15T11:28:32.419Z,65.60
2018-01-15T11:30:59.902Z,65.30
2018-01-15T11:33:28.150Z,65.30
2018-01-15T11:35:55.693Z,65.30
2018-01-15T11:38:23.178Z,65.80
2018-01-15T11:40:50.689Z,66.40
2018-01-15T11:43:18.194Z,65.00
2018-01-15T11:45:45.727Z,65.10
2018-01-15T11:48:13.245Z,64.10
2018-01-15T11:50:40.721Z,64.90
2018-01-15T11:53:09.009Z,64.30
2018-01-15T11:55:36.539Z,64.30
2018-01-15T11:58:04.026Z,64.80
2018-01-15T12:00:32.309Z,65.80
2018-01-15T12:03:00.578Z,66.60
2018-01-15T12:05:28.091Z,66.50
2018-01-15T12:07:55.601Z,66.60
2018-01-15T12:10:23.157Z,66.90
2018-01-15T12:12:50.677Z,67.90
2018-01-15T12:15:18.198Z,67.50
2018-01-15T12:17:46.473Z,67.60
2018-01-15T12:20:13.964Z,67.60
2018-01-15T12:22:41.482Z,66.50
2018-01-15T12:25:08.974Z,65.60
2018-01-15T12:27:37.263Z,66.40
2018-01-15T12:30:05.516Z,65.20
2018-01-15T12:32:33.043Z,65.10
2018-01-15T12:35:00.558Z,64.90
2018-01-15T12:37:29.097Z,65.20
2018-01-15T12:39:56.583Z,63.50
2018-01-15T12:42:24.101Z,63.40
2018-01-15T12:44:51.581Z,62.30
2018-01-15T12:47:19.110Z,62.30
2018-01-15T12:49:47.361Z,62.80
2018-01-15T12:52:14.851Z,62.80
2018-01-15T12:54:43.141Z,62.30
2018-01-15T12:57:10.666Z,62.20
2018-01-15T12:59:38.193Z,64.20
2018-01-15T13:02:05.688Z,63.60
2018-01-15T13:04:33.214Z,64.40
2018-01-15T13:07:00.744Z,64.30
2018-01-15T13:09:28.997Z,65.00
2018-01-15T13:11:56.490Z,64.90
2018-01-15T13:14:24.782Z,65.30
2018-01-15T13:16:52.272Z,65.30
2018-01-15T13:19:19.806Z,64.10
2018-01-15T13:21:47.285Z,63.70
2018-01-15T13:24:14.802Z,63.80
2018-01-15T13:26:42.318Z,63.70
2018-01-15T13:29:09.814Z,63.50
2018-01-15T13:31:37.330Z,61.90
2018-01-15T13:34:04.812Z,61.80
2018-01-15T13:36:32.335Z,63.00
2018-01-15T13:39:00.605Z,65.40
2018-01-15T13:41:28.132Z,65.40
2018-01-15T13:43:55.665Z,68.30
2018-01-15T13:46:23.186Z,68.50
2018-01-15T13:48:50.669Z,68.50
2018-01-15T13:51:18.956Z,68.30
2018-01-15T13:53:47.208Z,68.00
2018-01-15T13:56:14.724Z,67.90
2018-01-15T13:58:42.213Z,68.80
2018-01-15T14:01:09.730Z,68.60
2018-01-15T14:03:37.262Z,68.50
2018-01-15T14:06:04.779Z,69.20
2018-01-15T14:08:32.295Z,69.30
2018-01-15T14:10:59.833Z,68.90
2018-01-15T14:13:27.321Z,68.80
2018-01-15T14:15:54.810Z,69.00
2018-01-15T14:18:22.348Z,68.50
2018-01-15T14:20:49.842Z,69.00
2018-01-15T14:23:17.337Z,69.80
2018-01-15T14:25:44.853Z,69.30
2018-01-15T14:28:13.114Z,70.80
2018-01-15T14:30:40.625Z,70.80
2018-01-15T14:33:08.156Z,70.40
2018-01-15T14:35:36.402Z,70.30
2018-01-15T14:38:03.926Z,70.00
2018-01-15T14:40:31.456Z,68.90
2018-01-15T14:42:58.953Z,68.20
2018-01-15T14:45:26.441Z,68.20
2018-01-15T14:47:53.957Z,66.90
2018-01-15T14:50:22.250Z,66.20
2018-01-15T14:52:49.734Z,66.10
2018-01-15T14:55:17.225Z,65.70
2018-01-15T14:57:44.756Z,66.10
2018-01-15T15:00:12.286Z,65.60
2018-01-15T15:02:40.540Z,66.20
2018-01-15T15:05:08.046Z,66.00
2018-01-15T15:07:35.537Z,65.90
2018-01-15T15:10:03.058Z,66.90
2018-01-15T15:12:31.310Z,67.10
2018-01-15T15:14:58.855Z,66.90
2018-01-15T15:17:26.349Z,67.40
2018-01-15T15:19:53.893Z,67.40
2018-01-15T15:22:21.374Z,68.00
2018-01-15T15:24:48.895Z,67.80
2018-01-15T15:27:16.426Z,68.40
2018-01-15T15:29:44.709Z,68.90
2018-01-15T15:32:13.006Z,68.70
2018-01-15T15:34:40.497Z,68.80
2018-01-15T15:37:08.007Z,69.00
2018-01-15T15:39:36.304Z,70.00
2018-01-15T15:42:03.786Z,69.20
2018-01-15T15:44:31.261Z,68.70
2018-01-15T15:46:58.798Z,69.40
2018-01-15T15:49:26.294Z,70.40
2018-01-15T15:51:53.790Z,70.10
2018-01-15T15:54:21.332Z,69.90
2018-01-15T15:56:48.813Z,70.30
2018-01-15T15:59:16.330Z,70.00
2018-01-15T16:01:43.821Z,70.70
2018-01-15T16:04:11.352Z,70.60
2018-01-15T16:06:38.885Z,70.40
2018-01-15T16:09:07.133Z,70.40
2018-01-15T16:11:34.625Z,70.30
2018-01-15T16:14:02.191Z,70.50
2018-01-15T16:16:29.690Z,69.90
2018-01-15T16:18:57.209Z,69.80
2018-01-15T16:21:25.502Z,69.20
2018-01-15T16:23:53.794Z,67.20
2018-01-15T16:26:22.041Z,66.40
2018-01-15T16:28:49.586Z,66.40
2018-01-15T16:31:17.068Z,65.40
2018-01-15T16:33:44.581Z,65.00
2018-01-15T16:36:12.098Z,64.50
2018-01-15T16:38:39.619Z,64.20
2018-01-15T16:41:07.146Z,64.20
2018-01-15T16:43:35.391Z,62.30
2018-01-15T16:46:02.911Z,62.20
2018-01-15T16:48:30.392Z,61.80
2018-01-15T16:50:57.920Z,61.10
2018-01-15T16:53:26.173Z,60.40
2018-01-15T16:55:53.685Z,60.30
2018-01-15T16:58:21.365Z,60.10
2018-01-15T17:00:48.734Z,59.60
2018-01-15T17:03:16.212Z,59.60
2018-01-15T17:05:43.742Z,59.30
2018-01-15T17:08:11.268Z,59.40
2018-01-15T17:10:39.529Z,58.60
2018-01-15T17:13:07.053Z,58.40
2018-01-15T17:15:34.549Z,59.40
2018-01-15T17:18:02.069Z,59.30
2018-01-15T17:20:29.555Z,59.40
2018-01-15T17:22:57.061Z,59.20
2018-01-15T17:25:25.359Z,58.40
2018-01-15T17:27:53.658Z,58.60
2018-01-15T17:30:21.176Z,58.60
2018-01-15T17:32:48.665Z,59.10
2018-01-15T17:35:16.959Z,58.70
2018-01-15T17:37:44.565Z,58.70
2018-01-15T17:40:12.058Z,58.90
2018-01-15T17:42:39.529Z,59.50
2018-01-15T17:45:07.824Z,59.70
2018-01-15T17:47:35.305Z,59.60
2018-01-15T17:50:02.846Z,59.40
2018-01-15T17:52:31.131Z,59.40
2018-01-15T17:54:58.613Z,59.30
2018-01-15T17:57:26.129Z,59.50
2018-01-15T17:59:53.615Z,59.30
2018-01-15T18:02:21.994Z,59.30
2018-01-15T18:04:50.243Z,59.00
2018-01-15T18:07:17.734Z,59.00
2018-01-15T18:09:46.018Z,59.70
2018-01-15T18:12:14.270Z,59.50
2018-01-15T18:14:41.796Z,59.50
2018-01-15T18:17:09.281Z,60.00
2018-01-15T18:19:36.790Z,59.50
2018-01-15T18:22:05.102Z,60.20
2018-01-15T18:24:33.375Z,60.10
2018-01-15T18:27:00.849Z,60.10
2018-01-15T18:29:28.340Z,60.10
2018-01-15T18:31:55.888Z,60.10
2018-01-15T18:34:23.390Z,59.90
2018-01-15T18:36:50.879Z,59.90
2018-01-15T18:39:18.406Z,59.80
2018-01-15T18:41:45.889Z,59.70
2018-01-15T18:44:14.155Z,60.10
2018-01-15T18:46:41.685Z,60.10
2018-01-15T18:49:09.202Z,59.80
2018-01-15T18:51:37.490Z,60.20
2018-01-15T18:54:05.003Z,60.20
2018-01-15T18:56:32.506Z,60.20
2018-01-15T18:59:00.785Z,60.30
2018-01-15T19:01:29.043Z,60.70
2018-01-15T19:03:56.572Z,60.90
2018-01-15T19:06:24.056Z,60.40
2018-01-15T19:08:51.563Z,60.70
2018-01-15T19:11:19.041Z,60.70
2018-01-15T19:13:46.568Z,60.90
2018-01-15T19:16:14.085Z,60.90
2018-01-15T19:18:41.606Z,61.00
2018-01-15T19:21:09.878Z,61.20
2018-01-15T19:23:37.398Z,61.10
2018-01-15T19:26:04.882Z,62.40
2018-01-15T19:28:32.362Z,63.20
2018-01-15T19:30:59.874Z,64.20
2018-01-15T19:33:27.346Z,65.60
2018-01-15T19:39:00.388Z,67.60
2018-01-15T19:41:28.682Z,68.60
2018-01-15T19:44:03.477Z,70.10
2018-01-15T19:46:36.558Z,70.00
2018-01-15T19:49:09.662Z,69.60
2018-01-15T19:51:42.869Z,71.90
2018-01-15T19:54:16.578Z,73.00
2018-01-15T19:56:49.812Z,73.00
2018-01-15T19:59:23.195Z,74.30
2018-01-15T20:01:56.673Z,75.10
2018-01-15T20:04:29.859Z,76.00
2018-01-15T20:07:04.070Z,76.20
2018-01-15T20:09:38.204Z,77.00
2018-01-15T20:12:06.470Z,76.80
2018-01-15T20:14:34.008Z,76.80
2018-01-15T20:17:01.523Z,75.10
2018-01-15T20:19:29.062Z,75.90
2018-01-15T20:21:56.570Z,76.10
2018-01-15T20:24:24.078Z,76.50
2018-01-15T20:26:51.630Z,76.60
2018-01-15T20:29:19.154Z,76.00
2018-01-15T20:31:46.684Z,76.20
2018-01-15T20:34:14.949Z,76.40
2018-01-15T20:36:42.437Z,76.30
2018-01-15T20:39:10.784Z,77.80
2018-01-15T20:41:38.258Z,77.80
2018-01-15T20:44:05.785Z,78.80
2018-01-15T20:46:33.324Z,78.10
2018-01-15T20:49:00.811Z,79.20
2018-01-15T20:51:28.332Z,79.90
2018-01-15T20:53:56.602Z,79.20
2018-01-15T20:56:24.134Z,79.10
2018-01-15T20:58:51.623Z,80.00
2018-01-15T21:01:19.146Z,80.40
2018-01-15T21:03:46.647Z,79.30
2018-01-15T21:06:14.206Z,79.50
2018-01-15T21:08:41.729Z,80.20
2018-01-15T21:11:09.205Z,79.30
2018-01-15T21:13:36.721Z,80.10
2018-01-15T21:16:04.973Z,78.90
2018-01-15T21:18:32.459Z,78.90
2018-01-15T21:21:00.734Z,79.10
2018-01-15T21:23:29.018Z,78.70
2018-01-15T21:25:57.307Z,78.90
2018-01-15T21:28:25.599Z,79.20
2018-01-15T21:30:53.129Z,79.10
2018-01-15T21:33:20.619Z,80.30
2018-01-15T21:35:48.948Z,81.00
2018-01-15T21:38:16.441Z,81.00
2018-01-15T21:40:43.965Z,82.00
2018-01-15T21:43:11.454Z,80.90
2018-01-15T21:45:38.973Z,82.40
2018-01-15T21:48:06.460Z,82.00
2018-01-15T21:50:33.956Z,83.40
2018-01-15T21:53:01.596Z,83.60
2018-01-15T21:55:29.086Z,84.00
2018-01-15T21:57:56.575Z,82.30
2018-01-15T22:00:24.099Z,83.10
2018-01-15T22:02:51.626Z,82.50
2018-01-15T22:05:19.106Z,82.10
2018-01-15T22:07:46.681Z,83.40
2018-01-15T22:10:14.214Z,82.50
2018-01-15T22:12:41.706Z,84.20
2018-01-15T22:17:52.646Z,83.20
2018-01-15T22:20:20.135Z,82.70
2018-01-15T22:22:47.661Z,82.60
2018-01-15T22:25:15.181Z,82.60
2018-01-15T22:27:42.719Z,82.70
2018-01-15T22:30:10.206Z,82.90
2018-01-15T22:32:37.755Z,82.80
2018-01-15T22:35:05.252Z,82.70
2018-01-15T22:37:33.520Z,82.70
2018-01-15T22:40:01.048Z,82.60
2018-01-15T22:42:28.535Z,81.70
2018-01-15T22:44:56.807Z,81.70
2018-01-15T22:47:24.344Z,81.60
2018-01-15T22:49:51.845Z,81.40
2018-01-15T22:52:19.334Z,82.10
2018-01-15T22:54:47.626Z,82.00
2018-01-15T22:57:15.132Z,81.90
2018-01-15T22:59:42.834Z,81.80
2018-01-15T23:02:11.113Z,81.70
2018-01-15T23:04:39.375Z,80.70
2018-01-15T23:07:06.890Z,80.70
2018-01-15T23:09:34.394Z,80.70
2018-01-15T23:12:02.029Z,80.30
2018-01-15T23:14:29.532Z,80.60
2018-01-15T23:16:57.036Z,81.50
2018-01-15T23:19:24.551Z,82.00
2018-01-15T23:21:52.065Z,81.90
2018-01-15T23:24:19.568Z,83.30
2018-01-15T23:26:47.093Z,83.80
2018-01-15T23:29:15.371Z,84.50
2018-01-15T23:31:42.851Z,84.50
2018-01-15T23:34:10.333Z,87.00
2018-01-15T23:36:37.889Z,88.30
2018-01-15T23:39:05.413Z,87.80
2018-01-15T23:41:33.694Z,87.30
2018-01-15T23:44:01.990Z,87.70
2018-01-15T23:46:29.481Z,87.60
2018-01-15T23:48:57.019Z,87.70
2018-01-15T23:51:24.509Z,87.60
2018-01-15T23:53:52.021Z,86.80
2018-01-15T23:56:20.281Z,86.20
2018-01-15T23:58:47.818Z,86.20
